Time;durP1;ratioP1;P1;durP2;ratioP2;P2;SDS_P1;SDS_P2;PMS_P1;PMS_P2;Temp;Humidity;BMP_temperature;BMP_pressure;BME280_temperature;BME280_humidity;BME280_pressure;Samples;Min_cycle;Max_cycle;Signal;HPM_P1;HPM_P2
2021/07/03 00:02:08;;;;;;;3.13;2.83;;;;;;;;;;5075080;28;20027;-78
2021/07/03 00:04:34;;;;;;;2.95;2.60;;;;;;;;;;5075106;28;20032;-77
2021/07/03 00:07:00;;;;;;;3.03;2.65;;;;;;;;;;5074866;28;20028;-77
2021/07/03 00:09:26;;;;;;;3.00;2.78;;;;;;;;;;5074673;28;20032;-77
2021/07/03 00:11:52;;;;;;;2.72;2.53;;;;;;;;;;5075171;28;20017;-77
2021/07/03 00:14:19;;;;;;;2.80;2.58;;;;;;;;;;5075118;28;20021;-77
2021/07/03 00:16:45;;;;;;;2.80;2.60;;;;;;;;;;5074579;28;20482;-78
2021/07/03 00:19:11;;;;;;;4.45;3.33;;;;;;;;;;5076391;28;20030;-83
2021/07/03 00:21:37;;;;;;;3.58;2.85;;;;;;;;;;5076316;28;20024;-81
2021/07/03 00:24:03;;;;;;;4.05;2.97;;;;;;;;;;5076233;28;20369;-78
2021/07/03 00:26:29;;;;;;;2.85;2.53;;;;;;;;;;5075608;28;20036;-77
2021/07/03 00:28:55;;;;;;;2.50;2.25;;;;;;;;;;5075576;28;20473;-78
2021/07/03 00:31:21;;;;;;;3.03;2.53;;;;;;;;;;5075206;28;20358;-77
2021/07/03 00:33:48;;;;;;;2.60;2.33;;;;;;;;;;5075249;28;20115;-78
2021/07/03 00:36:14;;;;;;;3.15;2.80;;;;;;;;;;5075259;28;20038;-78
2021/07/03 00:38:40;;;;;;;2.80;2.60;;;;;;;;;;5075882;28;20351;-78
2021/07/03 00:41:06;;;;;;;3.13;2.83;;;;;;;;;;5075519;28;20024;-80
2021/07/03 00:43:32;;;;;;;2.97;2.63;;;;;;;;;;5075878;28;20020;-77
2021/07/03 00:45:58;;;;;;;2.65;2.30;;;;;;;;;;5075292;28;20473;-78
2021/07/03 00:48:24;;;;;;;3.15;2.95;;;;;;;;;;5074974;28;20031;-78
2021/07/03 00:50:50;;;;;;;2.60;2.40;;;;;;;;;;5075395;28;20061;-78
2021/07/03 00:53:16;;;;;;;3.25;2.83;;;;;;;;;;5075174;28;20056;-78
2021/07/03 00:55:42;;;;;;;5.70;2.50;;;;;;;;;;5075155;28;20024;-78
2021/07/03 00:58:08;;;;;;;2.65;2.45;;;;;;;;;;5075186;28;20036;-77
2021/07/03 01:00:34;;;;;;;2.58;2.38;;;;;;;;;;5074871;28;20052;-78
2021/07/03 01:03:00;;;;;;;2.65;2.45;;;;;;;;;;5074771;28;20512;-78
2021/07/03 01:05:26;;;;;;;3.90;2.25;;;;;;;;;;5074307;28;20033;-77
2021/07/03 01:07:53;;;;;;;2.70;2.50;;;;;;;;;;5075140;28;20024;-78
2021/07/03 01:10:20;;;;;;;2.53;2.33;;;;;;;;;;5075087;28;20024;-78
2021/07/03 01:12:46;;;;;;;2.60;2.28;;;;;;;;;;5074985;28;20023;-77
2021/07/03 01:15:12;;;;;;;3.10;2.70;;;;;;;;;;5074009;28;20024;-78
2021/07/03 01:17:38;;;;;;;2.83;2.58;;;;;;;;;;5073808;28;20024;-78
2021/07/03 01:20:05;;;;;;;2.95;2.70;;;;;;;;;;5074258;28;20020;-78
2021/07/03 01:22:32;;;;;;;2.67;2.47;;;;;;;;;;5073869;28;20489;-78
2021/07/03 01:24:58;;;;;;;2.95;2.75;;;;;;;;;;5074510;28;20374;-78
2021/07/03 01:27:24;;;;;;;3.30;2.85;;;;;;;;;;5073740;28;20021;-78
2021/07/03 01:29:50;;;;;;;4.25;2.63;;;;;;;;;;5074221;28;20028;-78
2021/07/03 01:32:16;;;;;;;3.22;2.92;;;;;;;;;;5074230;28;20021;-78
2021/07/03 01:34:42;;;;;;;3.80;2.80;;;;;;;;;;5073902;28;20027;-78
2021/07/03 01:37:08;;;;;;;2.83;2.38;;;;;;;;;;5074040;28;20024;-78
2021/07/03 01:39:34;;;;;;;2.55;2.33;;;;;;;;;;5074125;28;20078;-78
2021/07/03 01:42:01;;;;;;;3.47;2.88;;;;;;;;;;5074362;28;20025;-77
2021/07/03 01:44:28;;;;;;;2.42;2.22;;;;;;;;;;5073858;28;20425;-77
2021/07/03 01:46:54;;;;;;;3.00;2.50;;;;;;;;;;5073748;28;20025;-78
2021/07/03 01:49:20;;;;;;;2.38;2.17;;;;;;;;;;5073919;28;20343;-78
2021/07/03 01:51:46;;;;;;;2.80;2.60;;;;;;;;;;5074336;28;20140;-78
2021/07/03 01:54:12;;;;;;;2.58;2.38;;;;;;;;;;5074281;28;20052;-77
2021/07/03 01:56:41;;;;;;;2.30;2.10;;;;;;;;;;5074141;28;20043;-77
2021/07/03 01:59:07;;;;;;;2.85;2.20;;;;;;;;;;5073994;28;20028;-78
2021/07/03 02:01:33;;;;;;;2.17;1.98;;;;;;;;;;5073811;28;20373;-78
2021/07/03 02:03:59;;;;;;;5.10;2.55;;;;;;;;;;5073757;28;20028;-77
2021/07/03 02:06:25;;;;;;;3.38;2.30;;;;;;;;;;5073569;28;20017;-78
2021/07/03 02:08:51;;;;;;;2.60;2.40;;;;;;;;;;5073823;28;20021;-78
2021/07/03 02:11:17;;;;;;;4.90;2.45;;;;;;;;;;5073459;28;20039;-78
2021/07/03 02:13:43;;;;;;;4.00;2.55;;;;;;;;;;5077983;28;20066;-77
2021/07/03 02:16:09;;;;;;;2.90;2.70;;;;;;;;;;5077410;28;20115;-78
2021/07/03 02:18:36;;;;;;;4.90;2.38;;;;;;;;;;5077625;28;20413;-78
2021/07/03 02:21:02;;;;;;;3.03;2.20;;;;;;;;;;5077598;28;20021;-78
2021/07/03 02:23:28;;;;;;;2.83;2.63;;;;;;;;;;5077530;28;20024;-78
2021/07/03 02:25:54;;;;;;;2.30;2.10;;;;;;;;;;5077423;28;20470;-78
2021/07/03 02:28:20;;;;;;;2.60;2.40;;;;;;;;;;5077443;28;20357;-78
2021/07/03 02:30:46;;;;;;;2.42;2.22;;;;;;;;;;5076773;28;20016;-78
2021/07/03 02:33:12;;;;;;;2.88;2.53;;;;;;;;;;5077365;28;20079;-78
2021/07/03 02:35:38;;;;;;;4.55;2.30;;;;;;;;;;5077405;28;20496;-78
2021/07/03 02:38:04;;;;;;;2.75;2.55;;;;;;;;;;5077699;28;20052;-78
2021/07/03 02:40:30;;;;;;;2.58;2.28;;;;;;;;;;5077168;28;20485;-78
2021/07/03 02:42:56;;;;;;;4.32;2.22;;;;;;;;;;5077442;28;20370;-77
2021/07/03 02:45:23;;;;;;;2.58;2.38;;;;;;;;;;5076388;28;20089;-78
2021/07/03 02:47:49;;;;;;;2.80;2.42;;;;;;;;;;5077649;28;20086;-78
2021/07/03 02:50:16;;;;;;;2.33;2.13;;;;;;;;;;5076893;28;20017;-78
2021/07/03 02:52:42;;;;;;;2.65;2.45;;;;;;;;;;5077185;28;20038;-78
2021/07/03 02:55:09;;;;;;;2.50;2.30;;;;;;;;;;5076865;28;20032;-78
2021/07/03 02:57:35;;;;;;;2.30;2.10;;;;;;;;;;5077093;28;20028;-78
2021/07/03 03:00:01;;;;;;;3.40;2.42;;;;;;;;;;5076655;28;20500;-78
2021/07/03 03:02:27;;;;;;;5.10;2.72;;;;;;;;;;5076892;28;20228;-78
2021/07/03 03:04:53;;;;;;;4.18;2.75;;;;;;;;;;5076908;28;20021;-78
2021/07/03 03:07:19;;;;;;;2.72;2.53;;;;;;;;;;5076649;28;20051;-78
2021/07/03 03:09:45;;;;;;;2.83;2.42;;;;;;;;;;5076822;28;20059;-78
2021/07/03 03:12:11;;;;;;;2.55;2.35;;;;;;;;;;5076913;28;20025;-77
2021/07/03 03:14:37;;;;;;;2.83;2.55;;;;;;;;;;5076384;28;20028;-78
2021/07/03 03:17:03;;;;;;;4.80;3.03;;;;;;;;;;5076744;28;20064;-78
2021/07/03 03:19:29;;;;;;;3.05;2.47;;;;;;;;;;5076493;28;20382;-77
2021/07/03 03:21:55;;;;;;;4.22;2.15;;;;;;;;;;5076018;28;20024;-77
2021/07/03 03:24:21;;;;;;;2.15;1.92;;;;;;;;;;5076117;28;20070;-77
2021/07/03 03:26:48;;;;;;;2.85;2.65;;;;;;;;;;5075491;28;20024;-77
2021/07/03 03:29:14;;;;;;;2.78;2.55;;;;;;;;;;5075459;28;20027;-77
2021/07/03 03:31:40;;;;;;;2.92;2.63;;;;;;;;;;5075607;28;20029;-77
2021/07/03 03:34:06;;;;;;;2.47;2.28;;;;;;;;;;5076338;28;20020;-77
2021/07/03 03:36:32;;;;;;;2.40;2.20;;;;;;;;;;5075389;28;20028;-77
2021/07/03 03:38:58;;;;;;;2.42;2.22;;;;;;;;;;5075612;28;20025;-76
2021/07/03 03:41:25;;;;;;;5.45;2.65;;;;;;;;;;5075357;28;20032;-77
2021/07/03 03:43:52;;;;;;;2.50;2.30;;;;;;;;;;5075231;28;20035;-77
2021/07/03 03:46:18;;;;;;;3.08;2.53;;;;;;;;;;5075780;28;20068;-77
2021/07/03 03:48:44;;;;;;;2.65;2.45;;;;;;;;;;5075692;28;20046;-77
2021/07/03 03:51:10;;;;;;;3.17;2.80;;;;;;;;;;5075107;28;20512;-78
2021/07/03 03:53:36;;;;;;;2.72;2.45;;;;;;;;;;5075420;28;20092;-76
2021/07/03 03:56:02;;;;;;;2.25;2.05;;;;;;;;;;5075365;28;20083;-84
2021/07/03 03:58:28;;;;;;;2.40;2.20;;;;;;;;;;5076706;28;20123;-78
2021/07/03 04:00:54;;;;;;;3.40;3.00;;;;;;;;;;5076242;28;20039;-77
2021/07/03 04:03:20;;;;;;;2.70;2.50;;;;;;;;;;5074986;28;20382;-77
2021/07/03 04:05:46;;;;;;;3.40;3.10;;;;;;;;;;5075430;28;20029;-76
2021/07/03 04:08:12;;;;;;;2.38;2.17;;;;;;;;;;5067934;28;20017;-74
2021/07/03 04:10:38;;;;;;;2.85;2.65;;;;;;;;;;5063614;28;20028;-74
2021/07/03 04:13:05;;;;;;;3.40;3.05;;;;;;;;;;5064762;28;20724;-77
2021/07/03 04:15:31;;;;;;;2.70;2.50;;;;;;;;;;5062467;28;20040;-77
2021/07/03 04:17:57;;;;;;;3.17;2.85;;;;;;;;;;5063944;28;20017;-75
2021/07/03 04:20:23;;;;;;;27.67;3.78;;;;;;;;;;5064214;28;20021;-73
2021/07/03 04:22:49;;;;;;;3.65;3.35;;;;;;;;;;5062375;28;20465;-75
2021/07/03 04:25:15;;;;;;;3.38;2.80;;;;;;;;;;5062340;28;20028;-76
2021/07/03 04:27:41;;;;;;;4.45;3.70;;;;;;;;;;5063185;28;20028;-76
2021/07/03 04:30:09;;;;;;;3.80;3.38;;;;;;;;;;5061714;28;20029;-78
2021/07/03 04:32:35;;;;;;;3.95;3.65;;;;;;;;;;5063508;28;20032;-76
2021/07/03 04:35:01;;;;;;;8.77;3.95;;;;;;;;;;5063322;28;20036;-78
2021/07/03 04:37:27;;;;;;;3.83;3.13;;;;;;;;;;5061926;28;20422;-74
2021/07/03 04:39:53;;;;;;;4.45;4.05;;;;;;;;;;5063452;28;20020;-75
2021/07/03 04:42:19;;;;;;;3.47;3.17;;;;;;;;;;5063286;28;20024;-75
2021/07/03 04:44:45;;;;;;;3.60;3.30;;;;;;;;;;5062594;28;20104;-75
2021/07/03 04:47:12;;;;;;;4.95;3.67;;;;;;;;;;5063781;28;20085;-75
2021/07/03 04:49:38;;;;;;;4.00;3.70;;;;;;;;;;5063104;28;20463;-76
2021/07/03 04:52:04;;;;;;;6.65;4.32;;;;;;;;;;5062059;28;20386;-74
2021/07/03 04:54:30;;;;;;;4.65;3.78;;;;;;;;;;5064091;28;20455;-75
2021/07/03 04:57:11;;;;;;;5.45;4.18;;;;;;;;;;5062767;28;20025;-74
2021/07/03 04:59:37;;;;;;;5.20;4.60;;;;;;;;;;5061760;28;20055;-75
2021/07/03 05:02:05;;;;;;;4.85;4.45;;;;;;;;;;5064113;28;20032;-74
2021/07/03 05:04:31;;;;;;;6.55;4.60;;;;;;;;;;5062645;28;20037;-74
2021/07/03 05:06:57;;;;;;;6.95;3.88;;;;;;;;;;5062813;28;20138;-73
2021/07/03 05:09:23;;;;;;;4.60;4.22;;;;;;;;;;5063586;28;20025;-77
2021/07/03 05:11:49;;;;;;;4.65;4.25;;;;;;;;;;5062051;28;20029;-78
2021/07/03 05:14:15;;;;;;;5.40;4.55;;;;;;;;;;5064596;28;20020;-80
2021/07/03 05:16:42;;;;;;;5.47;4.35;;;;;;;;;;5063380;28;20045;-80
2021/07/03 05:19:08;;;;;;;4.82;4.38;;;;;;;;;;5065449;28;20421;-78
2021/07/03 05:21:34;;;;;;;5.50;4.63;;;;;;;;;;5062024;28;20025;-76
2021/07/03 05:24:00;;;;;;;6.25;4.65;;;;;;;;;;5063526;28;20036;-77
2021/07/03 05:26:26;;;;;;;4.72;4.32;;;;;;;;;;5062913;28;20501;-73
2021/07/03 05:28:52;;;;;;;4.60;4.20;;;;;;;;;;5061537;28;20096;-75
2021/07/03 05:31:18;;;;;;;5.43;5.00;;;;;;;;;;5062461;28;20016;-76
2021/07/03 05:33:44;;;;;;;5.60;4.45;;;;;;;;;;5063925;28;20475;-75
2021/07/03 05:36:11;;;;;;;5.80;5.30;;;;;;;;;;5062418;28;20025;-77
2021/07/03 05:38:46;;;;;;;5.60;5.10;;;;;;;;;;5063136;28;20039;-76
2021/07/03 05:41:13;;;;;;;5.22;4.72;;;;;;;;;;5062172;28;20052;-76
2021/07/03 05:43:39;;;;;;;5.32;4.35;;;;;;;;;;5062484;28;20028;-75
2021/07/03 05:46:05;;;;;;;6.82;5.18;;;;;;;;;;5063560;28;20021;-74
2021/07/03 05:48:35;;;;;;;5.88;4.50;;;;;;;;;;5066464;28;20036;-76
2021/07/03 05:51:01;;;;;;;6.03;5.05;;;;;;;;;;5067169;28;20060;-75
2021/07/03 05:53:28;;;;;;;6.00;5.43;;;;;;;;;;5067629;28;20347;-76
2021/07/03 05:55:54;;;;;;;5.57;4.85;;;;;;;;;;5066188;28;20047;-75
2021/07/03 05:58:20;;;;;;;10.02;5.35;;;;;;;;;;5063706;28;20056;-74
2021/07/03 06:00:46;;;;;;;6.53;4.80;;;;;;;;;;5057859;28;20025;-75
2021/07/03 06:03:12;;;;;;;5.70;4.63;;;;;;;;;;5056674;28;20063;-77
2021/07/03 06:05:38;;;;;;;5.22;4.72;;;;;;;;;;5056076;28;20120;-77
2021/07/03 06:08:04;;;;;;;5.57;4.55;;;;;;;;;;5056709;28;20036;-77
2021/07/03 06:10:30;;;;;;;5.72;5.18;;;;;;;;;;5058242;28;20123;-75
2021/07/03 06:12:56;;;;;;;6.22;5.72;;;;;;;;;;5073612;28;20021;-74
2021/07/03 06:15:23;;;;;;;9.20;7.72;;;;;;;;;;5066669;28;20462;-74
2021/07/03 06:17:49;;;;;;;22.73;8.65;;;;;;;;;;5055950;28;20120;-75
2021/07/03 06:20:15;;;;;;;13.05;8.27;;;;;;;;;;5056758;28;20028;-77
2021/07/03 06:22:41;;;;;;;13.57;10.68;;;;;;;;;;5056597;28;20029;-74
2021/07/03 06:25:08;;;;;;;10.85;9.73;;;;;;;;;;5056356;28;20025;-74
2021/07/03 06:27:34;;;;;;;13.70;12.13;;;;;;;;;;5056228;28;20033;-73
2021/07/03 06:30:00;;;;;;;16.50;10.93;;;;;;;;;;5056574;28;20028;-83
2021/07/03 06:32:26;;;;;;;19.92;13.43;;;;;;;;;;5057597;28;20025;-81
2021/07/03 06:34:52;;;;;;;18.70;12.63;;;;;;;;;;5058626;28;20242;-82
2021/07/03 06:37:18;;;;;;;16.83;12.05;;;;;;;;;;5056518;28;20025;-77
2021/07/03 06:39:44;;;;;;;17.73;12.48;;;;;;;;;;5055822;28;20425;-79
2021/07/03 06:42:11;;;;;;;12.02;10.73;;;;;;;;;;5056393;28;20352;-78
2021/07/03 06:44:37;;;;;;;13.60;11.35;;;;;;;;;;5056265;28;20108;-78
2021/07/03 06:47:03;;;;;;;13.57;10.73;;;;;;;;;;5056714;28;20025;-78
2021/07/03 06:49:29;;;;;;;26.08;14.88;;;;;;;;;;5055976;28;20071;-78
2021/07/03 06:51:55;;;;;;;37.70;13.60;;;;;;;;;;5055899;28;20052;-78
2021/07/03 06:54:21;;;;;;;21.63;14.27;;;;;;;;;;5055794;28;20057;-78
2021/07/03 06:56:48;;;;;;;14.52;12.93;;;;;;;;;;5055395;28;20482;-78
2021/07/03 06:59:14;;;;;;;31.45;13.05;;;;;;;;;;5055650;28;20036;-77
2021/07/03 07:01:40;;;;;;;14.75;12.40;;;;;;;;;;5056197;28;20352;-77
2021/07/03 07:04:06;;;;;;;13.57;12.27;;;;;;;;;;5055877;28;20029;-78
2021/07/03 07:06:33;;;;;;;19.42;11.65;;;;;;;;;;5055865;28;20563;-78
2021/07/03 07:09:00;;;;;;;20.77;10.85;;;;;;;;;;5055627;28;20017;-78
2021/07/03 07:11:26;;;;;;;13.88;11.98;;;;;;;;;;5055470;28;20025;-76
2021/07/03 07:13:52;;;;;;;16.77;11.85;;;;;;;;;;5055895;28;20025;-77
2021/07/03 07:16:18;;;;;;;14.43;11.60;;;;;;;;;;5055199;28;20036;-78
2021/07/03 07:18:44;;;;;;;19.88;11.15;;;;;;;;;;5055389;28;20029;-77
2021/07/03 07:21:11;;;;;;;11.93;10.70;;;;;;;;;;5055106;28;20021;-78
2021/07/03 07:23:37;;;;;;;13.98;10.95;;;;;;;;;;5055596;28;20386;-75
2021/07/03 07:26:03;;;;;;;18.08;10.93;;;;;;;;;;5055179;28;20025;-76
2021/07/03 07:28:29;;;;;;;23.98;11.10;;;;;;;;;;5055204;28;20060;-77
2021/07/03 07:30:55;;;;;;;14.23;10.18;;;;;;;;;;5055446;28;20025;-72
2021/07/03 07:33:21;;;;;;;12.45;9.80;;;;;;;;;;5055065;28;20116;-68
2021/07/03 07:35:47;;;;;;;12.77;10.57;;;;;;;;;;5055259;28;20068;-68
2021/07/03 07:38:13;;;;;;;10.85;8.43;;;;;;;;;;5054392;28;20021;-68
2021/07/03 07:40:39;;;;;;;12.93;10.35;;;;;;;;;;5054989;28;20047;-69
2021/07/03 07:43:05;;;;;;;13.65;9.05;;;;;;;;;;5055065;28;20071;-69
2021/07/03 07:45:31;;;;;;;10.73;8.25;;;;;;;;;;5055258;28;20021;-69
2021/07/03 07:47:57;;;;;;;10.25;9.05;;;;;;;;;;5054910;28;20029;-68
2021/07/03 07:50:23;;;;;;;14.15;9.35;;;;;;;;;;5054557;28;20025;-73
2021/07/03 07:52:50;;;;;;;11.80;9.50;;;;;;;;;;5054762;28;20025;-68
2021/07/03 07:55:16;;;;;;;17.80;8.80;;;;;;;;;;5054213;28;20032;-70
2021/07/03 07:57:42;;;;;;;12.32;8.25;;;;;;;;;;5055370;28;20031;-69
2021/07/03 08:00:08;;;;;;;16.83;9.35;;;;;;;;;;5054766;28;20075;-68
2021/07/03 08:02:34;;;;;;;14.40;9.15;;;;;;;;;;5054765;28;20021;-69
2021/07/03 08:05:00;;;;;;;13.43;10.50;;;;;;;;;;5054908;28;20032;-69
2021/07/03 08:07:26;;;;;;;10.60;8.43;;;;;;;;;;5054434;28;20666;-69
2021/07/03 08:09:52;;;;;;;16.27;9.23;;;;;;;;;;5053957;28;20017;-69
2021/07/03 08:12:18;;;;;;;11.43;9.68;;;;;;;;;;5054648;28;20120;-68
2021/07/03 08:14:44;;;;;;;11.68;9.50;;;;;;;;;;5054898;28;20036;-69
2021/07/03 08:17:10;;;;;;;14.90;9.00;;;;;;;;;;5054087;28;20470;-70
2021/07/03 08:19:38;;;;;;;15.25;7.95;;;;;;;;;;5054644;28;20033;-69
2021/07/03 08:22:04;;;;;;;13.13;8.25;;;;;;;;;;5054372;28;20052;-70
2021/07/03 08:24:30;;;;;;;14.85;8.05;;;;;;;;;;5054846;28;20029;-69
2021/07/03 08:26:56;;;;;;;11.00;9.18;;;;;;;;;;5054364;28;20029;-68
2021/07/03 08:29:22;;;;;;;9.68;8.15;;;;;;;;;;5054516;28;20029;-69
2021/07/03 08:31:48;;;;;;;9.15;8.27;;;;;;;;;;5054465;28;20036;-70
2021/07/03 08:34:14;;;;;;;14.32;8.70;;;;;;;;;;5054285;28;20560;-69
2021/07/03 08:36:40;;;;;;;13.57;9.57;;;;;;;;;;5054567;28;20112;-69
2021/07/03 08:39:06;;;;;;;9.77;8.90;;;;;;;;;;5053775;28;20078;-74
2021/07/03 08:41:33;;;;;;;10.32;8.07;;;;;;;;;;5054077;28;20116;-68
2021/07/03 08:43:59;;;;;;;22.38;8.80;;;;;;;;;;5054573;28;20063;-68
2021/07/03 08:46:25;;;;;;;9.07;8.23;;;;;;;;;;5053863;28;20028;-69
2021/07/03 08:48:53;;;;;;;9.15;8.20;;;;;;;;;;5053747;28;20025;-70
2021/07/03 08:51:19;;;;;;;8.80;7.43;;;;;;;;;;5053330;28;20554;-70
2021/07/03 08:53:45;;;;;;;9.98;7.55;;;;;;;;;;5054017;28;20032;-69
2021/07/03 08:56:11;;;;;;;12.13;7.78;;;;;;;;;;5054279;28;20123;-68
2021/07/03 08:58:37;;;;;;;7.80;7.10;;;;;;;;;;5053640;28;20021;-69
2021/07/03 09:01:18;;;;;;;8.85;7.28;;;;;;;;;;5052800;28;20053;-68
2021/07/03 09:03:52;;;;;;;8.52;6.95;;;;;;;;;;5053492;28;20021;-71
2021/07/03 09:06:18;;;;;;;7.53;6.82;;;;;;;;;;5053830;28;20029;-68
2021/07/03 09:08:51;;;;;;;8.40;7.60;;;;;;;;;;5054046;28;20025;-68
2021/07/03 09:11:18;;;;;;;10.52;7.22;;;;;;;;;;5053204;28;20067;-68
2021/07/03 09:13:44;;;;;;;11.07;8.43;;;;;;;;;;5053799;28;20028;-68
2021/07/03 09:16:10;;;;;;;7.82;7.05;;;;;;;;;;5053570;28;20455;-69
2021/07/03 09:18:36;;;;;;;12.13;7.85;;;;;;;;;;5053323;28;20035;-68
2021/07/03 09:21:03;;;;;;;9.00;7.70;;;;;;;;;;5053294;28;20025;-68
2021/07/03 09:23:32;;;;;;;10.55;8.32;;;;;;;;;;5053235;28;20025;-68
2021/07/03 09:26:00;;;;;;;21.35;7.90;;;;;;;;;;5052945;28;20029;-68
2021/07/03 09:28:27;;;;;;;14.18;8.40;;;;;;;;;;5052702;28;20021;-68
2021/07/03 09:30:54;;;;;;;7.70;6.88;;;;;;;;;;5053279;28;20022;-69
2021/07/03 09:33:22;;;;;;;8.65;7.78;;;;;;;;;;5052409;28;20474;-68
2021/07/03 09:36:04;;;;;;;11.55;8.25;;;;;;;;;;5052999;28;20037;-68
2021/07/03 09:38:32;;;;;;;8.02;7.22;;;;;;;;;;5053186;28;20025;-68
2021/07/03 09:41:14;;;;;;;9.13;8.32;;;;;;;;;;5053205;28;20481;-68
2021/07/03 09:43:40;;;;;;;;;;;;;;;;;;5052966;28;20035;-68
2021/07/03 09:46:06;;;;;;;17.45;7.45;;;;;;;;;;5053221;28;19904;-68
2021/07/03 09:48:32;;;;;;;7.70;6.93;;;;;;;;;;5052641;28;20487;-68
2021/07/03 09:51:07;;;;;;;6.93;6.20;;;;;;;;;;5052589;28;20098;-68
2021/07/03 09:53:33;;;;;;;7.88;5.97;;;;;;;;;;5052900;28;20029;-68
2021/07/03 09:55:59;;;;;;;14.90;7.93;;;;;;;;;;5052538;28;20551;-69
2021/07/03 09:58:25;;;;;;;8.05;7.20;;;;;;;;;;5052888;28;20051;-69
2021/07/03 10:00:51;;;;;;;8.50;7.30;;;;;;;;;;5053007;28;20063;-68
2021/07/03 10:03:17;;;;;;;8.57;7.78;;;;;;;;;;5052650;28;20025;-68
2021/07/03 10:05:45;;;;;;;13.23;6.82;;;;;;;;;;5052711;28;20474;-68
2021/07/03 10:08:12;;;;;;;10.63;8.13;;;;;;;;;;5052693;28;20036;-68
2021/07/03 10:10:38;;;;;;;11.00;7.03;;;;;;;;;;5052745;28;20025;-68
2021/07/03 10:13:05;;;;;;;13.23;7.78;;;;;;;;;;5053142;28;20166;-68
2021/07/03 10:15:32;;;;;;;8.30;7.50;;;;;;;;;;5052588;28;20021;-68
2021/07/03 10:18:18;;;;;;;8.48;7.25;;;;;;;;;;5052619;28;20158;-68
2021/07/03 10:20:44;;;;;;;7.20;6.60;;;;;;;;;;5038330;28;20068;-68
2021/07/03 10:23:10;;;;;;;11.13;7.03;;;;;;;;;;5052439;28;20139;-69
2021/07/03 10:25:40;;;;;;;16.27;9.32;;;;;;;;;;5052619;28;20028;-68
2021/07/03 10:28:08;;;;;;;24.10;12.90;;;;;;;;;;5053020;28;20027;-68
2021/07/03 10:30:34;;;;;;;13.63;9.80;;;;;;;;;;5049886;28;20025;-68
2021/07/03 10:33:01;;;;;;;18.05;13.95;;;;;;;;;;5053180;28;20028;-68
2021/07/03 10:35:27;;;;;;;26.85;14.05;;;;;;;;;;5055734;28;20501;-68
2021/07/03 10:37:55;;;;;;;21.98;10.40;;;;;;;;;;5056049;28;20479;-69
2021/07/03 10:40:24;;;;;;;13.20;9.25;;;;;;;;;;5055768;28;20429;-68
2021/07/03 10:42:50;;;;;;;15.45;9.38;;;;;;;;;;5055721;28;20414;-68
2021/07/03 10:45:22;;;;;;;12.75;11.18;;;;;;;;;;5055940;28;20041;-68
2021/07/03 10:47:48;;;;;;;16.15;9.40;;;;;;;;;;5055864;28;20052;-67
2021/07/03 10:50:22;;;;;;;12.50;9.20;;;;;;;;;;5055947;28;20067;-68
2021/07/03 10:52:49;;;;;;;13.95;9.18;;;;;;;;;;5055385;28;20041;-68
2021/07/03 10:55:25;;;;;;;22.70;11.70;;;;;;;;;;5055559;28;20029;-68
2021/07/03 10:57:51;;;;;;;14.32;9.02;;;;;;;;;;5056576;28;20029;-68
2021/07/03 11:00:21;;;;;;;11.75;9.00;;;;;;;;;;5055459;28;20025;-68
2021/07/03 11:02:47;;;;;;;12.65;9.38;;;;;;;;;;5062535;28;20107;-67
2021/07/03 11:05:14;;;;;;;14.48;9.88;;;;;;;;;;5064556;28;20028;-67
2021/07/03 11:07:41;;;;;;;21.73;9.88;;;;;;;;;;5069504;28;20028;-70
2021/07/03 11:10:09;;;;;;;9.63;8.60;;;;;;;;;;5062751;28;20424;-71
2021/07/03 11:12:52;;;;;;;10.65;8.48;;;;;;;;;;5063684;28;20347;-70
2021/07/03 11:15:19;;;;;;;13.65;8.73;;;;;;;;;;5074769;28;20077;-70
2021/07/03 11:17:45;;;;;;;17.52;8.20;;;;;;;;;;5075468;28;20370;-69
2021/07/03 11:20:21;;;;;;;10.80;7.60;;;;;;;;;;5075554;28;20028;-69
2021/07/03 11:22:47;;;;;;;11.80;7.90;;;;;;;;;;5075513;28;20367;-69
2021/07/03 11:25:13;;;;;;;18.30;8.02;;;;;;;;;;5060326;28;20025;-70
2021/07/03 11:27:40;;;;;;;11.32;7.18;;;;;;;;;;5062474;28;20021;-70
2021/07/03 11:30:09;;;;;;;8.80;7.95;;;;;;;;;;5064616;28;20032;-71
2021/07/03 11:32:35;;;;;;;17.55;8.25;;;;;;;;;;5062773;28;20414;-71
2021/07/03 11:35:02;;;;;;;8.48;7.07;;;;;;;;;;5063888;28;20048;-69
2021/07/03 11:37:30;;;;;;;11.23;8.20;;;;;;;;;;5064114;28;20037;-71
2021/07/03 11:39:57;;;;;;;7.85;6.85;;;;;;;;;;5062844;28;20025;-68
2021/07/03 11:42:27;;;;;;;7.70;6.80;;;;;;;;;;5063348;28;20428;-69
2021/07/03 11:44:53;;;;;;;10.75;6.90;;;;;;;;;;5063325;28;20091;-69
2021/07/03 11:47:20;;;;;;;8.15;5.95;;;;;;;;;;5062740;28;20490;-70
2021/07/03 11:49:46;;;;;;;8.73;7.57;;;;;;;;;;5063210;28;20050;-70
2021/07/03 11:52:13;;;;;;;11.63;6.50;;;;;;;;;;5061837;28;20041;-70
2021/07/03 11:54:39;;;;;;;7.45;6.60;;;;;;;;;;5063517;28;20419;-71
2021/07/03 11:57:06;;;;;;;8.38;7.45;;;;;;;;;;5063638;28;20390;-69
2021/07/03 11:59:32;;;;;;;9.52;6.53;;;;;;;;;;5061835;28;20479;-69
2021/07/03 12:01:58;;;;;;;7.40;6.70;;;;;;;;;;5064626;28;20465;-70
2021/07/03 12:04:25;;;;;;;7.15;6.25;;;;;;;;;;5062386;28;20081;-70
2021/07/03 12:07:06;;;;;;;22.58;6.15;;;;;;;;;;5062100;28;20052;-70
2021/07/03 12:09:33;;;;;;;7.13;5.50;;;;;;;;;;5062026;28;20029;-70
2021/07/03 12:11:59;;;;;;;7.05;5.43;;;;;;;;;;5060145;28;20047;-70
2021/07/03 12:14:26;;;;;;;6.82;6.10;;;;;;;;;;5062990;28;20029;-69
2021/07/03 12:16:56;;;;;;;6.95;6.07;;;;;;;;;;5062161;28;20033;-70
2021/07/03 12:19:22;;;;;;;6.97;6.38;;;;;;;;;;5062165;28;20554;-70
2021/07/03 12:21:48;;;;;;;8.38;6.18;;;;;;;;;;5062613;28;20024;-69
2021/07/03 12:24:14;;;;;;;7.40;6.40;;;;;;;;;;5063738;28;20016;-69
2021/07/03 12:26:41;;;;;;;6.40;5.80;;;;;;;;;;5061770;28;20407;-69
2021/07/03 12:29:09;;;;;;;12.60;6.60;;;;;;;;;;5062201;28;20466;-70
2021/07/03 12:31:44;;;;;;;5.85;5.35;;;;;;;;;;5063661;28;20347;-73
2021/07/03 12:34:11;;;;;;;6.70;5.95;;;;;;;;;;5063540;28;20059;-69
2021/07/03 12:36:39;;;;;;;6.65;5.90;;;;;;;;;;5061920;28;20029;-69
2021/07/03 12:39:08;;;;;;;7.13;5.88;;;;;;;;;;5062963;28;20037;-73
2021/07/03 12:41:35;;;;;;;6.93;5.55;;;;;;;;;;5068152;28;20458;-71
2021/07/03 12:44:01;;;;;;;5.82;5.32;;;;;;;;;;5066486;28;20025;-76
2021/07/03 12:46:30;;;;;;;6.78;5.30;;;;;;;;;;5061669;28;20052;-70
2021/07/03 12:48:57;;;;;;;6.38;5.78;;;;;;;;;;5062712;28;20024;-69
2021/07/03 12:51:28;;;;;;;6.95;6.25;;;;;;;;;;5060025;28;20049;-70
2021/07/03 12:53:56;;;;;;;5.80;5.30;;;;;;;;;;5061890;28;20017;-70
2021/07/03 12:56:22;;;;;;;6.35;5.38;;;;;;;;;;5063303;28;20116;-67
2021/07/03 12:58:56;;;;;;;5.57;5.07;;;;;;;;;;5061346;28;20021;-68
2021/07/03 13:01:27;;;;;;;5.63;5.05;;;;;;;;;;5063787;28;20056;-68
2021/07/03 13:03:53;;;;;;;6.03;5.43;;;;;;;;;;5061004;28;20066;-67
2021/07/03 13:06:23;;;;;;;5.47;5.00;;;;;;;;;;5062780;28;20040;-70
2021/07/03 13:08:49;;;;;;;5.32;4.82;;;;;;;;;;5062393;28;20608;-71
2021/07/03 13:11:15;;;;;;;5.15;4.65;;;;;;;;;;5060703;28;20344;-69
2021/07/03 13:13:41;;;;;;;6.35;4.95;;;;;;;;;;5062686;28;20017;-69
2021/07/03 13:16:07;;;;;;;5.38;4.88;;;;;;;;;;5062262;28;20387;-69
2021/07/03 13:18:33;;;;;;;4.82;4.38;;;;;;;;;;5060712;28;20017;-69
2021/07/03 13:20:59;;;;;;;6.55;5.50;;;;;;;;;;5073295;28;20501;-69
2021/07/03 13:23:27;;;;;;;6.35;4.85;;;;;;;;;;5073008;28;20032;-69
2021/07/03 13:25:53;;;;;;;7.20;4.95;;;;;;;;;;5073034;28;20082;-68
2021/07/03 13:28:19;;;;;;;4.93;4.43;;;;;;;;;;5073560;28;20028;-68
2021/07/03 13:30:45;;;;;;;8.70;5.15;;;;;;;;;;5072907;28;20024;-68
2021/07/03 13:33:11;;;;;;;5.88;4.32;;;;;;;;;;5073030;28;20031;-68
2021/07/03 13:35:37;;;;;;;5.15;4.55;;;;;;;;;;5073030;28;20037;-68
2021/07/03 13:38:03;;;;;;;4.65;4.25;;;;;;;;;;5073625;28;20056;-69
2021/07/03 13:40:30;;;;;;;17.33;4.95;;;;;;;;;;5073624;28;20103;-69
2021/07/03 13:42:56;;;;;;;6.78;4.63;;;;;;;;;;5073164;28;20029;-69
2021/07/03 13:45:22;;;;;;;8.85;4.70;;;;;;;;;;5072776;28;20024;-67
2021/07/03 13:47:48;;;;;;;8.18;4.93;;;;;;;;;;5072984;28;20028;-67
2021/07/03 13:50:14;;;;;;;4.95;4.38;;;;;;;;;;5073150;28;20028;-67
2021/07/03 13:52:40;;;;;;;9.05;5.68;;;;;;;;;;5072975;28;20056;-67
2021/07/03 13:55:07;;;;;;;9.88;5.20;;;;;;;;;;5073254;28;20356;-66
2021/07/03 13:57:33;;;;;;;5.22;4.38;;;;;;;;;;5073211;28;20382;-69
2021/07/03 14:00:00;;;;;;;10.52;4.82;;;;;;;;;;5073202;28;20021;-69
2021/07/03 14:02:26;;;;;;;5.05;4.55;;;;;;;;;;5072919;28;20027;-69
2021/07/03 14:04:52;;;;;;;4.47;3.85;;;;;;;;;;5072614;28;20157;-69
2021/07/03 14:07:18;;;;;;;5.07;4.57;;;;;;;;;;5073130;28;20025;-69
2021/07/03 14:09:44;;;;;;;8.52;4.35;;;;;;;;;;5076276;28;20021;-70
2021/07/03 14:12:10;;;;;;;6.15;4.50;;;;;;;;;;5065293;28;20063;-69
2021/07/03 14:14:36;;;;;;;6.88;4.35;;;;;;;;;;5066568;28;20051;-69
2021/07/03 14:17:04;;;;;;;3.67;3.38;;;;;;;;;;5064235;28;20493;-67
2021/07/03 14:19:30;;;;;;;13.27;4.30;;;;;;;;;;5065140;28;20519;-67
2021/07/03 14:21:56;;;;;;;9.30;4.10;;;;;;;;;;5064035;28;20117;-67
2021/07/03 14:24:22;;;;;;;4.18;3.85;;;;;;;;;;5062774;28;20431;-67
2021/07/03 14:26:49;;;;;;;5.07;4.45;;;;;;;;;;5069825;28;20094;-69
2021/07/03 14:29:15;;;;;;;5.13;4.40;;;;;;;;;;5064226;28;20114;-68
2021/07/03 14:31:41;;;;;;;6.90;3.90;;;;;;;;;;5067371;28;20024;-68
2021/07/03 14:34:07;;;;;;;9.45;4.53;;;;;;;;;;5073526;28;20402;-69
2021/07/03 14:36:34;;;;;;;5.72;3.88;;;;;;;;;;5059327;28;20356;-67